Airfield :
LOGIN :

Register | Disclaimer

   EN    FR    IT 

 










Legend :    VFR   Marginal VFR   IFR   Intensive IFR   Very Intensive IFR
Visi :
Ceiling :
>= 8 km
>= 3000ft
5 to 8 km
1000 to 3000 ft
1500m to 5 km
500 to 1000 ft
800 to 1500m
200 to 500 ft
< 800m
< 200 ft
Symbols :   Thunderstorms  Fog  Heavy snow  Heavy precipitations  Wind > 20 kt
SIGMETs :     Misc.  Thunderstorms  Icing  Turbulence  Mountain Waves  Volcanic Ashes







- Airport Elevation : 194 ft


EBCV - Chièvres

CURRENT METAR :
  • 212225Z AUTO VRB02KT 6000 BR NCD 14/13 Q1012 WHT

EXPIRED METARs :
  • 212216Z AUTO 26005KT 6000 NCD 14/14 Q1012 WHT
  • 212203Z AUTO VRB01KT 4200 BR NCD 13/13 Q1012 GRN
  • 212155Z AUTO VRB02KT 7000 FEW070/// 14/14 Q1012 WHT
  • 212125Z AUTO VRB02KT 9999 SCT067/// 15/14 Q1012 BLU
  • 212114Z AUTO VRB02KT 7000 BKN065/// 15/15 Q1012 WHT
  • 212055Z AUTO 21003KT 7000 OVC066/// 15/15 Q1012 WHT
  • 212033Z AUTO VRB02KT 6000 OVC073/// 15/15 Q1012 WHT
  • 212025Z AUTO VRB02KT 8000 BKN074/// OVC087/// 16/15 Q1012 BLU
  • 212010Z AUTO VRB02KT 7000 SCT074/// BKN087/// 15/15 Q1012 WHT
  • 211955Z AUTO VRB02KT 9000 SCT087/// 15/15 Q1012 BLU
  • 211949Z AUTO VRB01KT 5000 FEW083/// 15/14 Q1012 WHT

TAF TAF EBCV
Valid from the 21 at 19:00 until the 22 at 07:00 UTC


211541Z 2119/2207 VRB02KT 9999 SCT050
TEMPO 2119/2123 8000 -SHRA SCT035TCU
TEMPO 2119/2123 6000 SHRA/-TSRA BKN025CB
PROB30
TEMPO 2119/2123 06015G25KT 3000 TSRAGS SCT012 BKN020CB
BECMG 2202/2207 4000 BR BKN008
PROB30
TEMPO 2204/2207 800 FG BKN002 BY EBWM
No reported NOTAMs for that airfield.



MET'MAP, your aeronautical weather chart ! - Copyright ORBIFLY December 2007 - Disclaimer

ORBIFLY MET'MAP TEAM :

Programming & Development : Alexandra Zaïnal
Concept & Development : Baudouin d'Aumeries
Co-Development & Prog : Marc-Olivier Méhu
Technical & hardware support : Manuel Goepfert

Contact : metmap@orbifly.com




SOURCES & CREDITS :

   NOAA